createdAt,value
2023-05-11T00:00:43.648Z,0.00
2023-05-11T00:01:43.676Z,0.00
2023-05-11T00:02:43.756Z,0.00
2023-05-11T00:03:43.765Z,0.00
2023-05-11T00:04:43.872Z,0.00
2023-05-11T00:05:43.808Z,0.00
2023-05-11T00:06:43.810Z,0.00
2023-05-11T00:07:43.839Z,0.00
2023-05-11T00:08:43.866Z,0.00
2023-05-11T00:09:43.901Z,0.00
2023-05-11T00:10:43.919Z,0.00
2023-05-11T00:11:43.949Z,0.00
2023-05-11T00:12:43.975Z,0.00
2023-05-11T00:13:44.005Z,0.00
2023-05-11T00:14:44.030Z,0.00
2023-05-11T00:15:44.090Z,0.00
2023-05-11T00:16:44.085Z,0.00
2023-05-11T00:17:44.148Z,0.00
2023-05-11T00:18:44.243Z,0.00
2023-05-11T00:19:44.167Z,0.00
2023-05-11T00:20:44.193Z,0.00
2023-05-11T00:21:44.241Z,0.00
2023-05-11T00:22:44.939Z,0.00
2023-05-11T00:23:44.277Z,0.00
2023-05-11T00:24:44.311Z,0.00
2023-05-11T00:25:44.336Z,0.00
2023-05-11T00:26:44.363Z,0.00
2023-05-11T00:27:44.385Z,0.00
2023-05-11T00:28:44.411Z,0.00
2023-05-11T00:29:44.438Z,0.00
2023-05-11T00:30:44.489Z,0.00
2023-05-11T00:31:44.528Z,0.00
2023-05-11T00:32:44.571Z,0.00
2023-05-11T00:33:44.553Z,0.00
2023-05-11T00:34:44.576Z,0.00
2023-05-11T00:35:44.600Z,0.00
2023-05-11T00:36:44.625Z,0.00
2023-05-11T00:37:44.671Z,0.00
2023-05-11T00:38:44.685Z,0.00
2023-05-11T00:39:44.712Z,0.00
2023-05-11T00:40:44.731Z,0.00
2023-05-11T00:41:44.762Z,0.00
2023-05-11T00:42:44.784Z,0.00
2023-05-11T00:43:44.813Z,0.00
2023-05-11T00:44:44.840Z,0.00
2023-05-11T00:45:44.868Z,0.00
2023-05-11T00:46:44.912Z,0.00
2023-05-11T00:47:44.957Z,0.00
2023-05-11T00:48:44.948Z,0.00
2023-05-11T00:49:44.972Z,0.00
2023-05-11T00:50:45.023Z,0.00
2023-05-11T00:51:45.081Z,0.00
2023-05-11T00:52:45.059Z,0.00
2023-05-11T00:53:45.103Z,0.00
2023-05-11T00:54:45.108Z,0.00
2023-05-11T00:55:45.134Z,0.00
2023-05-11T00:56:45.164Z,0.00
2023-05-11T00:57:45.197Z,0.00
2023-05-11T00:58:45.214Z,0.00
2023-05-11T00:59:45.243Z,0.00
2023-05-11T01:00:45.291Z,0.00
2023-05-11T01:01:45.323Z,0.00
2023-05-11T01:02:45.583Z,0.00
2023-05-11T01:03:45.353Z,0.00
2023-05-11T01:04:45.377Z,0.00
2023-05-11T01:05:45.408Z,0.00
2023-05-11T01:06:45.433Z,0.00
2023-05-11T01:07:45.467Z,0.00
2023-05-11T01:08:45.489Z,0.00
2023-05-11T01:09:45.539Z,0.00
2023-05-11T01:10:45.541Z,0.00
2023-05-11T01:11:45.681Z,0.00
2023-05-11T01:12:45.605Z,0.00
2023-05-11T01:13:45.627Z,0.00
2023-05-11T01:14:45.654Z,0.00
2023-05-11T01:15:45.681Z,0.00
2023-05-11T01:16:45.729Z,0.00
2023-05-11T01:17:45.798Z,0.00
2023-05-11T01:18:45.805Z,0.00
2023-05-11T01:19:45.791Z,0.00
2023-05-11T01:20:45.819Z,0.00
2023-05-11T01:21:45.844Z,0.00
2023-05-11T01:22:45.872Z,0.00
2023-05-11T01:23:45.897Z,0.00
2023-05-11T01:24:45.927Z,0.00
2023-05-11T01:25:45.976Z,0.00
2023-05-11T01:26:45.985Z,0.00
2023-05-11T01:27:46.010Z,0.00
2023-05-11T01:28:46.034Z,0.00
2023-05-11T01:29:46.076Z,0.00
2023-05-11T01:30:46.090Z,0.00
2023-05-11T01:31:46.150Z,0.00
2023-05-11T01:32:46.216Z,0.00
2023-05-11T01:33:46.173Z,0.00
2023-05-11T01:34:46.196Z,0.00
2023-05-11T01:35:46.239Z,0.00
2023-05-11T01:36:46.248Z,0.00
2023-05-11T01:37:46.278Z,0.00
2023-05-11T01:38:46.313Z,0.00
2023-05-11T01:39:46.330Z,0.00
2023-05-11T01:40:46.355Z,0.00
2023-05-11T01:41:46.409Z,0.00
2023-05-11T01:42:46.411Z,0.00
2023-05-11T01:43:46.454Z,0.00
2023-05-11T01:44:46.462Z,0.00
2023-05-11T01:45:47.800Z,0.00
2023-05-11T01:46:46.516Z,0.00
2023-05-11T01:47:46.602Z,0.00
2023-05-11T01:48:46.568Z,0.00
2023-05-11T01:49:46.593Z,0.00
2023-05-11T01:50:46.621Z,0.00
2023-05-11T01:51:46.650Z,0.00
2023-05-11T01:52:46.674Z,0.00
2023-05-11T01:53:46.708Z,0.00
2023-05-11T01:54:46.728Z,0.00
2023-05-11T01:55:46.757Z,0.00
2023-05-11T01:56:46.785Z,0.00
2023-05-11T01:57:46.837Z,0.00
2023-05-11T01:58:46.836Z,0.00
2023-05-11T01:59:46.864Z,0.00
2023-05-11T02:00:46.891Z,0.00
2023-05-11T02:01:46.935Z,0.00
2023-05-11T02:02:46.973Z,0.00
2023-05-11T02:03:46.984Z,0.00
2023-05-11T02:04:46.997Z,0.00
2023-05-11T02:05:47.025Z,0.00
2023-05-11T02:06:47.052Z,0.00
2023-05-11T02:07:47.080Z,0.00
2023-05-11T02:08:47.105Z,0.00
2023-05-11T02:09:47.140Z,0.00
2023-05-11T02:10:47.161Z,0.00
2023-05-11T02:11:47.186Z,0.00
2023-05-11T02:12:47.211Z,0.00
2023-05-11T02:13:47.263Z,0.00
2023-05-11T02:14:47.264Z,0.00
2023-05-11T02:15:47.378Z,0.00
2023-05-11T02:16:47.320Z,0.00
2023-05-11T02:17:47.380Z,0.00
2023-05-11T02:18:47.410Z,0.00
2023-05-11T02:19:47.404Z,0.00
2023-05-11T02:20:47.446Z,0.00
2023-05-11T02:21:47.452Z,0.00
2023-05-11T02:22:47.484Z,0.00
2023-05-11T02:23:47.513Z,0.00
2023-05-11T02:24:47.538Z,0.00
2023-05-11T02:25:47.579Z,0.00
2023-05-11T02:26:47.585Z,0.00
2023-05-11T02:27:47.632Z,0.00
2023-05-11T02:28:47.652Z,0.00
2023-05-11T02:29:47.689Z,0.00
2023-05-11T02:30:47.692Z,0.00
2023-05-11T02:31:47.734Z,0.00
2023-05-11T02:32:47.798Z,0.00
2023-05-11T02:33:48.887Z,0.00
2023-05-11T02:34:47.801Z,0.00
2023-05-11T02:35:47.831Z,0.00
2023-05-11T02:36:47.858Z,0.00
2023-05-11T02:37:47.897Z,0.00
2023-05-11T02:38:47.916Z,0.00
2023-05-11T02:39:47.936Z,0.00
2023-05-11T02:40:47.979Z,0.00
2023-05-11T02:41:47.996Z,0.00
2023-05-11T02:42:48.025Z,0.00
2023-05-11T02:43:48.048Z,0.00
2023-05-11T02:44:48.076Z,0.00
2023-05-11T02:45:48.120Z,0.00
2023-05-11T02:46:48.163Z,0.00
2023-05-11T02:47:48.248Z,0.00
2023-05-11T02:48:48.179Z,0.00
2023-05-11T02:49:48.207Z,0.00
2023-05-11T02:50:48.233Z,0.00
2023-05-11T02:51:48.259Z,0.00
2023-05-11T02:52:48.286Z,0.00
2023-05-11T02:53:48.313Z,0.00
2023-05-11T02:54:48.341Z,0.00
2023-05-11T02:55:48.372Z,0.00
2023-05-11T02:56:48.398Z,0.00
2023-05-11T02:57:48.470Z,0.00
2023-05-11T02:58:48.461Z,0.00
2023-05-11T02:59:48.478Z,0.00
2023-05-11T03:00:48.611Z,0.00
2023-05-11T03:01:48.616Z,0.00
2023-05-11T03:02:48.671Z,0.00
2023-05-11T03:03:48.646Z,0.00
2023-05-11T03:04:48.612Z,0.00
2023-05-11T03:05:48.642Z,0.00
2023-05-11T03:06:48.665Z,0.00
2023-05-11T03:07:48.701Z,0.00
2023-05-11T03:08:48.718Z,0.00
2023-05-11T03:09:48.740Z,0.00
2023-05-11T03:10:48.764Z,0.00
2023-05-11T03:11:48.990Z,0.00
2023-05-11T03:12:48.819Z,0.00
2023-05-11T03:13:48.857Z,0.00
2023-05-11T03:14:48.875Z,0.00
2023-05-11T03:15:48.899Z,0.00
2023-05-11T03:16:48.968Z,0.00
2023-05-11T03:17:49.051Z,0.00
2023-05-11T03:18:49.031Z,0.00
2023-05-11T03:19:49.025Z,0.00
2023-05-11T03:20:49.032Z,4.00
2023-05-11T03:21:49.058Z,4.00
2023-05-11T03:22:49.084Z,4.00
2023-05-11T03:23:49.111Z,4.00
2023-05-11T03:24:49.147Z,4.00
2023-05-11T03:25:49.166Z,4.00
2023-05-11T03:26:49.204Z,0.00
2023-05-11T03:27:49.218Z,4.00
2023-05-11T03:28:49.249Z,4.00
2023-05-11T03:29:49.275Z,4.00
2023-05-11T03:30:49.311Z,8.00
2023-05-11T03:31:51.099Z,4.00
2023-05-11T03:32:49.392Z,8.00
2023-05-11T03:33:49.413Z,4.00
2023-05-11T03:34:49.415Z,8.00
2023-05-11T03:35:49.441Z,12.00
2023-05-11T03:36:49.465Z,12.00
2023-05-11T03:37:49.494Z,12.00
2023-05-11T03:38:49.524Z,16.00
2023-05-11T03:39:49.548Z,16.00
2023-05-11T03:40:49.575Z,16.00
2023-05-11T03:41:49.607Z,16.00
2023-05-11T03:42:49.632Z,20.00
2023-05-11T03:43:51.511Z,20.00
2023-05-11T03:44:49.693Z,24.00
2023-05-11T03:45:49.729Z,24.00
2023-05-11T03:46:49.744Z,28.00
2023-05-11T03:47:49.834Z,32.00
2023-05-11T03:48:49.812Z,28.00
2023-05-11T03:49:49.845Z,36.00
2023-05-11T03:50:49.849Z,40.00
2023-05-11T03:51:49.877Z,48.00
2023-05-11T03:52:49.905Z,52.00
2023-05-11T03:53:49.928Z,56.00
2023-05-11T03:54:49.958Z,60.00
2023-05-11T03:55:50.027Z,68.00
2023-05-11T03:56:50.011Z,72.00
2023-05-11T03:57:50.036Z,72.00
2023-05-11T03:58:50.068Z,76.00
2023-05-11T03:59:50.092Z,84.00
2023-05-11T04:00:50.130Z,88.00
2023-05-11T04:01:50.145Z,96.00
2023-05-11T04:02:50.242Z,104.00
2023-05-11T04:03:50.343Z,112.00
2023-05-11T04:04:50.256Z,124.00
2023-05-11T04:05:50.278Z,140.00
2023-05-11T04:06:50.279Z,148.00
2023-05-11T04:07:50.308Z,152.00
2023-05-11T04:08:50.336Z,156.00
2023-05-11T04:09:50.372Z,160.00
2023-05-11T04:10:50.391Z,160.00
2023-05-11T04:11:50.416Z,160.00
2023-05-11T04:12:50.456Z,168.00
2023-05-11T04:13:50.481Z,176.00
2023-05-11T04:14:50.498Z,192.00
2023-05-11T04:15:52.278Z,204.00
2023-05-11T04:16:50.561Z,212.00
2023-05-11T04:17:50.609Z,228.00
2023-05-11T04:18:50.638Z,236.00
2023-05-11T04:19:50.631Z,248.00
2023-05-11T04:20:50.681Z,268.00
2023-05-11T04:21:50.717Z,284.00
2023-05-11T04:22:50.720Z,296.00
2023-05-11T04:23:50.756Z,308.00
2023-05-11T04:24:50.772Z,328.00
2023-05-11T04:25:50.799Z,344.00
2023-05-11T04:26:50.828Z,368.00
2023-05-11T04:27:50.858Z,392.00
2023-05-11T04:28:50.895Z,412.00
2023-05-11T04:29:50.910Z,428.00
2023-05-11T04:30:50.938Z,440.00
2023-05-11T04:31:51.004Z,456.00
2023-05-11T04:32:51.022Z,476.00
2023-05-11T04:33:51.016Z,500.00
2023-05-11T04:34:51.057Z,536.00
2023-05-11T04:35:51.072Z,584.00
2023-05-11T04:36:51.102Z,636.00
2023-05-11T04:37:51.146Z,668.00
2023-05-11T04:38:51.158Z,688.00
2023-05-11T04:39:51.185Z,712.00
2023-05-11T04:40:51.211Z,732.00
2023-05-11T04:41:51.240Z,744.00
2023-05-11T04:42:51.266Z,752.00
2023-05-11T04:43:51.292Z,748.00
2023-05-11T04:44:51.321Z,756.00
2023-05-11T04:45:51.345Z,768.00
2023-05-11T04:46:51.394Z,788.00
2023-05-11T04:47:51.425Z,808.00
2023-05-11T04:48:51.449Z,844.00
2023-05-11T04:49:51.458Z,876.00
2023-05-11T04:50:51.490Z,912.00
2023-05-11T04:51:51.517Z,952.00
2023-05-11T04:52:51.549Z,992.00
2023-05-11T04:53:51.586Z,1028.00
2023-05-11T04:54:51.597Z,1052.00
2023-05-11T04:55:51.632Z,1068.00
2023-05-11T04:56:51.652Z,1084.00
2023-05-11T04:57:51.679Z,1096.00
2023-05-11T04:58:51.701Z,1104.00
2023-05-11T04:59:51.758Z,1112.00
2023-05-11T05:00:51.785Z,1116.00
2023-05-11T05:01:51.789Z,1136.00
2023-05-11T05:02:51.877Z,1156.00
2023-05-11T05:03:51.885Z,1192.00
2023-05-11T05:04:51.875Z,1236.00
2023-05-11T05:05:51.900Z,1284.00
2023-05-11T05:06:51.927Z,1324.00
2023-05-11T05:07:51.960Z,1372.00
2023-05-11T05:08:51.988Z,1424.00
2023-05-11T05:09:52.033Z,1504.00
2023-05-11T05:10:52.038Z,1620.00
2023-05-11T05:11:52.070Z,1768.00
2023-05-11T05:12:52.093Z,1944.00
2023-05-11T05:13:52.124Z,2120.00
2023-05-11T05:14:52.150Z,2256.00
2023-05-11T05:15:52.178Z,2340.00
2023-05-11T05:16:52.262Z,2388.00
2023-05-11T05:17:52.282Z,2420.00
2023-05-11T05:18:52.290Z,2416.00
2023-05-11T05:19:52.289Z,2408.00
2023-05-11T05:20:52.331Z,2404.00
2023-05-11T05:21:52.350Z,2408.00
2023-05-11T05:22:52.373Z,2404.00
2023-05-11T05:23:52.403Z,2368.00
2023-05-11T05:24:52.444Z,2320.00
2023-05-11T05:25:52.498Z,2272.00
2023-05-11T05:26:52.503Z,2224.00
2023-05-11T05:27:52.513Z,2200.00
2023-05-11T05:28:52.546Z,2208.00
2023-05-11T05:29:52.566Z,2260.00
2023-05-11T05:30:52.645Z,2292.00
2023-05-11T05:31:52.639Z,2284.00
2023-05-11T05:32:52.813Z,2340.00
2023-05-11T05:33:52.689Z,2512.00
2023-05-11T05:34:52.723Z,2680.00
2023-05-11T05:35:52.734Z,2796.00
2023-05-11T05:36:52.768Z,2976.00
2023-05-11T05:37:52.795Z,3148.00
2023-05-11T05:38:52.822Z,3148.00
2023-05-11T05:39:52.867Z,2868.00
2023-05-11T05:40:52.877Z,2620.00
2023-05-11T05:41:52.924Z,2572.00
2023-05-11T05:42:52.934Z,2576.00
2023-05-11T05:43:52.963Z,2536.00
2023-05-11T05:44:52.998Z,2520.00
2023-05-11T05:46:45.748Z,2828.00
2023-05-11T05:47:45.640Z,3080.00
2023-05-11T05:48:45.647Z,3360.00
2023-05-11T05:49:45.688Z,3800.00
2023-05-11T05:50:45.698Z,4116.00
2023-05-11T05:51:45.729Z,4424.00
2023-05-11T05:52:45.757Z,4768.00
2023-05-11T05:53:45.783Z,5160.00
2023-05-11T05:54:45.812Z,5544.00
2023-05-11T05:55:45.903Z,5308.00
2023-05-11T05:56:45.870Z,4812.00
2023-05-11T05:57:45.928Z,4732.00
2023-05-11T05:58:45.924Z,4796.00
2023-05-11T05:59:45.954Z,5184.00
2023-05-11T06:00:46.030Z,5344.00
2023-05-11T06:01:46.014Z,5160.00
2023-05-11T06:02:46.099Z,4744.00
2023-05-11T06:03:46.214Z,4408.00
2023-05-11T06:04:46.113Z,4308.00
2023-05-11T06:06:38.874Z,4276.00
2023-05-11T06:07:38.919Z,4332.00
2023-05-11T06:08:38.933Z,4364.00
2023-05-11T06:09:39.354Z,4336.00
2023-05-11T06:10:39.095Z,4300.00
2023-05-11T06:11:39.032Z,4360.00
2023-05-11T06:12:39.045Z,4560.00
2023-05-11T06:13:39.111Z,4960.00
2023-05-11T06:14:39.098Z,5372.00
2023-05-11T06:15:41.077Z,5772.00
2023-05-11T06:16:39.316Z,6100.00
2023-05-11T06:17:39.204Z,6336.00
2023-05-11T06:18:39.290Z,6576.00
2023-05-11T06:19:39.249Z,6756.00
2023-05-11T06:20:39.280Z,6820.00
2023-05-11T06:21:39.301Z,6848.00
2023-05-11T06:22:39.331Z,6932.00
2023-05-11T06:23:39.359Z,7020.00
2023-05-11T06:24:39.388Z,7204.00
2023-05-11T06:25:39.445Z,7524.00
2023-05-11T06:26:40.865Z,7788.00
2023-05-11T06:27:39.472Z,7872.00
2023-05-11T06:28:39.507Z,7960.00
2023-05-11T06:29:39.551Z,8028.00
2023-05-11T06:30:39.557Z,8076.00
2023-05-11T06:31:39.646Z,7948.00
2023-05-11T06:32:39.673Z,7744.00
2023-05-11T06:33:39.648Z,7540.00
2023-05-11T06:34:39.674Z,7296.00
2023-05-11T06:35:39.702Z,7068.00
2023-05-11T06:36:39.736Z,7020.00
2023-05-11T06:37:39.761Z,7064.00
2023-05-11T06:38:39.787Z,7192.00
2023-05-11T06:39:39.820Z,7404.00
2023-05-11T06:40:39.850Z,7468.00
2023-05-11T06:41:39.878Z,7400.00
2023-05-11T06:42:39.908Z,7376.00
2023-05-11T06:43:39.933Z,7404.00
2023-05-11T06:44:40.002Z,7404.00
2023-05-11T06:45:40.043Z,7448.00
2023-05-11T06:46:40.025Z,7540.00
2023-05-11T06:47:40.092Z,7536.00
2023-05-11T06:48:40.081Z,7428.00
2023-05-11T06:49:40.132Z,7176.00
2023-05-11T06:50:40.139Z,6876.00
2023-05-11T06:51:40.166Z,6668.00
2023-05-11T06:52:40.209Z,6600.00
2023-05-11T06:53:40.238Z,6636.00
2023-05-11T06:54:40.270Z,6720.00
2023-05-11T06:55:40.319Z,6888.00
2023-05-11T06:56:40.524Z,7160.00
2023-05-11T06:57:40.557Z,7492.00
2023-05-11T06:58:40.397Z,7920.00
2023-05-11T06:59:40.480Z,8408.00
2023-05-11T07:00:40.435Z,9524.00
2023-05-11T07:01:40.628Z,10112.00
2023-05-11T07:02:40.545Z,10804.00
2023-05-11T07:03:40.523Z,12288.00
2023-05-11T07:04:40.574Z,14204.00
2023-05-11T07:05:40.592Z,18400.00
2023-05-11T07:06:40.611Z,21120.00
2023-05-11T07:07:40.667Z,20128.00
2023-05-11T07:08:40.677Z,19072.00
2023-05-11T07:09:42.113Z,17152.00
2023-05-11T07:13:06.592Z,14484.00
2023-05-11T07:14:49.183Z,12892.00
2023-05-11T07:15:49.219Z,12404.00
2023-05-11T07:16:49.298Z,11620.00
2023-05-11T07:17:49.294Z,10840.00
2023-05-11T07:18:49.331Z,10208.00
2023-05-11T07:19:49.342Z,9480.00
2023-05-11T07:20:49.363Z,9068.00
2023-05-11T07:21:49.386Z,8756.00
2023-05-11T07:22:49.410Z,8592.00
2023-05-11T07:23:49.484Z,8760.00
2023-05-11T07:24:49.699Z,8936.00
2023-05-11T07:25:49.728Z,9080.00
2023-05-11T07:28:50.211Z,10620.00
2023-05-11T07:29:50.859Z,11364.00
2023-05-11T07:30:49.880Z,11980.00
2023-05-11T07:31:50.617Z,12584.00
2023-05-11T07:32:50.281Z,12640.00
2023-05-11T07:34:49.988Z,12956.00
2023-05-11T07:35:50.110Z,13040.00
2023-05-11T07:36:49.843Z,12860.00
2023-05-11T07:37:49.877Z,12920.00
2023-05-11T07:38:49.908Z,13516.00
2023-05-11T07:39:50.349Z,15120.00
2023-05-11T07:40:50.287Z,14896.00
2023-05-11T07:41:50.715Z,15692.00
2023-05-11T07:42:50.054Z,18400.00
2023-05-11T07:43:50.071Z,27008.00
2023-05-11T07:45:50.646Z,24800.00
2023-05-11T07:46:50.264Z,21824.00
2023-05-11T07:47:50.235Z,20384.00
2023-05-11T07:48:57.394Z,31840.00
2023-05-11T07:49:50.227Z,30304.00
2023-05-11T07:50:50.264Z,28224.00
2023-05-11T07:51:50.289Z,33760.00
2023-05-11T07:52:50.329Z,22720.00
2023-05-11T07:53:50.359Z,15456.00
2023-05-11T07:54:50.384Z,13064.00
2023-05-11T07:55:50.418Z,11628.00
2023-05-11T07:56:50.452Z,10956.00
2023-05-11T07:57:51.485Z,11116.00
2023-05-11T07:58:50.516Z,11540.00
2023-05-11T07:59:50.537Z,11728.00
2023-05-11T08:00:50.576Z,11260.00
2023-05-11T08:01:50.615Z,9816.00
2023-05-11T08:02:50.776Z,8348.00
2023-05-11T08:03:50.663Z,7704.00
2023-05-11T08:04:50.716Z,7612.00
2023-05-11T08:05:50.759Z,7996.00
2023-05-11T08:06:50.766Z,8556.00
2023-05-11T08:07:50.808Z,9384.00
2023-05-11T08:08:50.823Z,9904.00
2023-05-11T08:09:50.851Z,10192.00
2023-05-11T08:10:50.879Z,9592.00
2023-05-11T08:11:50.908Z,8644.00
2023-05-11T08:12:50.952Z,7740.00
2023-05-11T08:13:50.975Z,7272.00
2023-05-11T08:15:43.967Z,7776.00
2023-05-11T08:16:47.335Z,8476.00
2023-05-11T08:17:44.036Z,9092.00
2023-05-11T08:18:44.105Z,9304.00
2023-05-11T08:19:44.155Z,10108.00
2023-05-11T08:20:44.114Z,9984.00
2023-05-11T08:21:44.123Z,9792.00
2023-05-11T08:22:44.156Z,11984.00
2023-05-11T08:23:45.204Z,8856.00
2023-05-11T08:24:44.219Z,8308.00
2023-05-11T08:25:44.250Z,8420.00
2023-05-11T08:26:44.603Z,8772.00
2023-05-11T08:27:44.325Z,9252.00
2023-05-11T08:28:44.347Z,10032.00
2023-05-11T08:29:44.371Z,11128.00
2023-05-11T08:30:44.725Z,11912.00
2023-05-11T08:31:44.479Z,12488.00
2023-05-11T08:33:44.675Z,13016.00
2023-05-11T08:34:44.612Z,13104.00
2023-05-11T08:35:44.559Z,13128.00
2023-05-11T08:36:44.612Z,13512.00
2023-05-11T08:37:44.619Z,14504.00
2023-05-11T08:38:44.655Z,15132.00
2023-05-11T08:39:47.589Z,17408.00
2023-05-11T08:40:44.714Z,19968.00
2023-05-11T08:41:44.743Z,16068.00
2023-05-11T08:42:44.782Z,15756.00
2023-05-11T08:43:44.804Z,15812.00
2023-05-11T08:44:44.848Z,17568.00
2023-05-11T08:45:44.887Z,20448.00
2023-05-11T08:46:44.900Z,22176.00
2023-05-11T08:47:44.998Z,24256.00
2023-05-11T08:48:45.018Z,22016.00
2023-05-11T08:49:44.992Z,19104.00
2023-05-11T08:50:45.026Z,18112.00
2023-05-11T08:52:27.639Z,16544.00
2023-05-11T08:53:27.638Z,14732.00
2023-05-11T08:54:27.666Z,12520.00
2023-05-11T08:55:27.706Z,11604.00
2023-05-11T08:56:27.727Z,11128.00
2023-05-11T08:57:27.966Z,10768.00
2023-05-11T08:58:27.800Z,10620.00
2023-05-11T08:59:27.840Z,10520.00
2023-05-11T09:00:27.871Z,10508.00
2023-05-11T09:01:27.919Z,10424.00
2023-05-11T09:02:28.021Z,10052.00
2023-05-11T09:03:27.976Z,9476.00
2023-05-11T09:04:27.993Z,8840.00
2023-05-11T09:05:28.059Z,8604.00
2023-05-11T09:06:28.051Z,8636.00
2023-05-11T09:07:28.088Z,8792.00
2023-05-11T09:08:28.137Z,9100.00
2023-05-11T09:09:28.156Z,9624.00
2023-05-11T09:10:28.181Z,10696.00
2023-05-11T09:11:28.208Z,11780.00
2023-05-11T09:13:28.279Z,10268.00
2023-05-11T09:14:28.312Z,9872.00
2023-05-11T09:15:28.326Z,9796.00
2023-05-11T09:16:36.877Z,9916.00
2023-05-11T09:17:28.443Z,10124.00
2023-05-11T09:18:28.472Z,10200.00
2023-05-11T09:19:28.467Z,9996.00
2023-05-11T09:20:28.502Z,9628.00
2023-05-11T09:21:28.530Z,9276.00
2023-05-11T09:22:31.015Z,8988.00
2023-05-11T09:23:28.579Z,8792.00
2023-05-11T09:24:28.635Z,8640.00
2023-05-11T09:25:28.650Z,8612.00
2023-05-11T09:26:29.089Z,8696.00
2023-05-11T09:27:28.708Z,8912.00
2023-05-11T09:29:30.402Z,9272.00
2023-05-11T09:30:28.817Z,9224.00
2023-05-11T09:31:28.961Z,9012.00
2023-05-11T09:32:28.890Z,8800.00
2023-05-11T09:33:28.903Z,8668.00
2023-05-11T09:34:28.946Z,8604.00
2023-05-11T09:35:29.380Z,8452.00
2023-05-11T09:36:29.002Z,8300.00
2023-05-11T09:37:29.019Z,8188.00
2023-05-11T09:38:29.068Z,8192.00
2023-05-11T09:41:34.900Z,8260.00
2023-05-11T09:43:29.222Z,8384.00
2023-05-11T09:44:29.235Z,8576.00
2023-05-11T09:45:29.264Z,8668.00
2023-05-11T09:46:29.348Z,8808.00
2023-05-11T09:47:29.783Z,9080.00
2023-05-11T09:48:29.374Z,9380.00
2023-05-11T09:49:29.385Z,9636.00
2023-05-11T09:50:29.417Z,9832.00
2023-05-11T09:51:29.472Z,10204.00
2023-05-11T09:52:29.564Z,10540.00
2023-05-11T09:53:29.510Z,10812.00
2023-05-11T09:54:29.551Z,11128.00
2023-05-11T09:55:29.890Z,11528.00
2023-05-11T09:56:29.927Z,11708.00
2023-05-11T09:57:29.686Z,11768.00
2023-05-11T09:58:30.392Z,11924.00
2023-05-11T09:59:29.718Z,11980.00
2023-05-11T10:00:29.766Z,11888.00
2023-05-11T10:01:29.812Z,11844.00
2023-05-11T10:02:30.031Z,12028.00
2023-05-11T10:03:30.186Z,12376.00
2023-05-11T10:04:30.755Z,12672.00
2023-05-11T10:10:42.348Z,15116.00
2023-05-11T10:11:42.403Z,15280.00
2023-05-11T10:12:42.411Z,15328.00
2023-05-11T10:13:42.448Z,15264.00
2023-05-11T10:14:42.473Z,15272.00
2023-05-11T10:15:42.609Z,15500.00
2023-05-11T10:16:42.543Z,15680.00
2023-05-11T10:17:42.582Z,15716.00
2023-05-11T10:18:42.631Z,15584.00
2023-05-11T10:19:42.631Z,15532.00
2023-05-11T10:20:42.671Z,15404.00
2023-05-11T10:21:42.709Z,15040.00
2023-05-11T10:22:42.727Z,14468.00
2023-05-11T10:23:42.778Z,14008.00
2023-05-11T10:24:42.794Z,13756.00
2023-05-11T10:25:42.820Z,13620.00
2023-05-11T10:26:42.857Z,13480.00
2023-05-11T10:27:42.914Z,13328.00
2023-05-11T10:28:42.916Z,13152.00
2023-05-11T10:29:42.946Z,12984.00
2023-05-11T10:30:42.982Z,12908.00
2023-05-11T10:31:43.058Z,12824.00
2023-05-11T10:32:43.098Z,12804.00
2023-05-11T10:34:43.100Z,12656.00
2023-05-11T10:35:43.142Z,12304.00
2023-05-11T10:36:43.178Z,12152.00
2023-05-11T10:37:43.424Z,12116.00
2023-05-11T10:38:43.231Z,11732.00
2023-05-11T10:39:43.258Z,11228.00
2023-05-11T10:40:43.292Z,10928.00
2023-05-11T10:41:43.336Z,10756.00
2023-05-11T10:42:43.371Z,10548.00
2023-05-11T10:44:43.440Z,10528.00
2023-05-11T10:45:43.515Z,10300.00
2023-05-11T10:46:43.480Z,10156.00
2023-05-11T10:47:43.566Z,10492.00
2023-05-11T10:48:43.550Z,10872.00
2023-05-11T10:49:43.578Z,11064.00
2023-05-11T10:50:43.636Z,11428.00
2023-05-11T10:51:43.644Z,10988.00
2023-05-11T10:52:43.674Z,10708.00
2023-05-11T10:53:43.703Z,10816.00
2023-05-11T10:54:43.732Z,11440.00
2023-05-11T10:55:45.488Z,11580.00
2023-05-11T10:56:43.796Z,11868.00
2023-05-11T10:57:43.828Z,11884.00
2023-05-11T10:58:43.960Z,12272.00
2023-05-11T10:59:43.897Z,12468.00
2023-05-11T11:00:44.007Z,12776.00
2023-05-11T11:01:43.991Z,13244.00
2023-05-11T11:02:44.014Z,14380.00
2023-05-11T11:04:28.173Z,14936.00
2023-05-11T11:05:26.621Z,15128.00
2023-05-11T11:06:26.640Z,15016.00
2023-05-11T11:07:26.675Z,15112.00
2023-05-11T11:09:26.747Z,15400.00
2023-05-11T11:10:26.771Z,15272.00
2023-05-11T11:11:26.793Z,14396.00
2023-05-11T11:12:26.842Z,14316.00
2023-05-11T11:13:27.060Z,14228.00
2023-05-11T11:14:26.890Z,14264.00
2023-05-11T11:15:26.923Z,14128.00
2023-05-11T11:16:27.016Z,14104.00
2023-05-11T11:17:27.041Z,13924.00
2023-05-11T11:18:27.270Z,13172.00
2023-05-11T11:19:27.064Z,13024.00
2023-05-11T11:20:27.097Z,12812.00
2023-05-11T11:21:27.128Z,12276.00
2023-05-11T11:22:27.567Z,12116.00
2023-05-11T11:23:28.197Z,12388.00
2023-05-11T11:24:27.215Z,12492.00
2023-05-11T11:25:27.249Z,12296.00
2023-05-11T11:26:27.280Z,12132.00
2023-05-11T11:27:30.140Z,11952.00
2023-05-11T11:28:27.346Z,11648.00
2023-05-11T11:29:27.374Z,11196.00
2023-05-11T11:30:27.422Z,10832.00
2023-05-11T11:31:27.486Z,10620.00
2023-05-11T11:32:27.529Z,10420.00
2023-05-11T11:33:27.503Z,10364.00
2023-05-11T11:34:27.578Z,10464.00
2023-05-11T11:35:27.567Z,10516.00
2023-05-11T11:36:27.609Z,10644.00
2023-05-11T11:37:27.633Z,10868.00
2023-05-11T11:38:29.465Z,11216.00
2023-05-11T11:39:27.712Z,11684.00
2023-05-11T11:41:27.758Z,12044.00
2023-05-11T11:42:27.790Z,12036.00
2023-05-11T11:43:27.826Z,11860.00
2023-05-11T11:44:27.866Z,11336.00
2023-05-11T11:45:27.927Z,11092.00
2023-05-11T11:46:27.957Z,11100.00
2023-05-11T11:47:28.038Z,11400.00
2023-05-11T11:48:28.297Z,11932.00
2023-05-11T11:49:28.028Z,12520.00
2023-05-11T11:50:28.247Z,13104.00
2023-05-11T11:51:28.097Z,13572.00
2023-05-11T11:52:28.312Z,13832.00
2023-05-11T11:53:28.139Z,14088.00
2023-05-11T11:54:28.189Z,14140.00
2023-05-11T11:55:28.202Z,14096.00
2023-05-11T11:56:28.238Z,13984.00
2023-05-11T11:57:28.266Z,13696.00
2023-05-11T11:58:28.298Z,13388.00
2023-05-11T11:59:28.340Z,13220.00
2023-05-11T12:00:28.362Z,13080.00
2023-05-11T12:01:28.397Z,12848.00
2023-05-11T12:02:28.592Z,12456.00
2023-05-11T12:03:28.603Z,12020.00
2023-05-11T12:04:28.706Z,11324.00
2023-05-11T12:05:28.535Z,10732.00
2023-05-11T12:06:28.559Z,10276.00
2023-05-11T12:07:28.590Z,9916.00
2023-05-11T12:08:28.611Z,9832.00
2023-05-11T12:09:28.796Z,10128.00
2023-05-11T12:10:28.672Z,10288.00
2023-05-11T12:11:28.730Z,10324.00
2023-05-11T12:12:28.760Z,9984.00
2023-05-11T12:13:28.980Z,9532.00
2023-05-11T12:14:28.802Z,8964.00
2023-05-11T12:15:28.841Z,8552.00
2023-05-11T12:16:29.133Z,8308.00
2023-05-11T12:17:28.937Z,8460.00
2023-05-11T12:18:29.171Z,8960.00
2023-05-11T12:19:28.974Z,9556.00
2023-05-11T12:20:29.008Z,10164.00
2023-05-11T12:21:29.034Z,10808.00
2023-05-11T12:22:29.056Z,11148.00
2023-05-11T12:23:29.099Z,11252.00
2023-05-11T12:24:29.115Z,11312.00
2023-05-11T12:25:29.157Z,11224.00
2023-05-11T12:26:29.180Z,11252.00
2023-05-11T12:27:29.212Z,11468.00
2023-05-11T12:28:29.560Z,11636.00
2023-05-11T12:29:29.275Z,11644.00
2023-05-11T12:30:29.562Z,11300.00
2023-05-11T12:31:29.362Z,10956.00
2023-05-11T12:32:29.511Z,10668.00
2023-05-11T12:33:29.452Z,10524.00
2023-05-11T12:34:29.441Z,10776.00
2023-05-11T12:35:29.470Z,11264.00
2023-05-11T12:36:29.530Z,11552.00
2023-05-11T12:37:29.557Z,11820.00
2023-05-11T12:38:29.560Z,12108.00
2023-05-11T12:39:29.603Z,12244.00
2023-05-11T12:40:29.623Z,12284.00
2023-05-11T12:41:29.663Z,12288.00
2023-05-11T12:42:29.706Z,12368.00
2023-05-11T12:43:29.728Z,12400.00
2023-05-11T12:44:29.958Z,12332.00
2023-05-11T12:46:47.446Z,12248.00
2023-05-11T12:47:47.503Z,12296.00
2023-05-11T12:48:47.480Z,12344.00
2023-05-11T12:49:47.516Z,12184.00